createdAt,value
2023-04-10T00:00:37.982Z,100868.41
2023-04-10T00:03:04.920Z,100868.72
2023-04-10T00:05:31.760Z,100862.06
2023-04-10T00:07:59.825Z,100861.59
2023-04-10T00:10:29.445Z,100858.31
2023-04-10T00:12:56.438Z,100859.94
2023-04-10T00:15:23.485Z,100859.41
2023-04-10T00:17:55.002Z,100855.59
2023-04-10T00:20:26.478Z,100862.28
2023-04-10T00:22:53.058Z,100855.59
2023-04-10T00:25:19.596Z,100858.44
2023-04-10T00:27:46.525Z,100864.56
2023-04-10T00:30:12.941Z,100852.19
2023-04-10T00:32:39.564Z,100859.34
2023-04-10T00:35:08.205Z,100844.25
2023-04-10T00:37:34.702Z,100847.88
2023-04-10T00:40:01.657Z,100849.84
2023-04-10T00:42:28.089Z,100846.56
2023-04-10T00:44:54.652Z,100847.06
2023-04-10T00:47:21.744Z,100849.59
2023-04-10T00:49:48.225Z,100839.94
2023-04-10T00:52:14.581Z,100845.78
2023-04-10T00:54:41.371Z,100841.97
2023-04-10T00:57:08.084Z,100840.63
2023-04-10T00:59:36.063Z,100845.00
2023-04-10T01:02:03.270Z,100850.53
2023-04-10T01:04:31.230Z,100838.69
2023-04-10T01:07:15.103Z,100845.63
2023-04-10T01:09:46.471Z,100847.31
2023-04-10T01:12:45.686Z,100845.75
2023-04-10T01:15:16.288Z,100847.38
2023-04-10T01:17:54.786Z,100844.88
2023-04-10T01:20:27.040Z,100853.97
2023-04-10T01:23:13.946Z,100856.19
2023-04-10T01:25:47.114Z,100860.34
2023-04-10T01:28:19.825Z,100856.22
2023-04-10T01:30:47.797Z,100863.66
2023-04-10T01:33:18.693Z,100852.06
2023-04-10T01:35:53.454Z,100868.34
2023-04-10T01:38:21.479Z,100862.94
2023-04-10T01:40:51.264Z,100856.03
2023-04-10T01:43:18.485Z,100857.44
2023-04-10T01:45:46.761Z,100860.22
2023-04-10T01:48:13.489Z,100857.47
2023-04-10T01:50:41.010Z,100848.16
2023-04-10T01:53:09.318Z,100847.03
2023-04-10T01:55:37.578Z,100853.09
2023-04-10T01:58:04.914Z,100842.63
2023-04-10T02:00:37.903Z,100847.91
2023-04-10T02:03:04.561Z,100841.03
2023-04-10T02:05:39.616Z,100848.19
2023-04-10T02:08:12.811Z,100842.16
2023-04-10T02:10:52.386Z,100841.06
2023-04-10T02:13:22.105Z,100834.47
2023-04-10T02:15:50.673Z,100836.41
2023-04-10T02:18:18.657Z,100837.25
2023-04-10T02:20:45.537Z,100827.91
2023-04-10T02:23:12.021Z,100827.94
2023-04-10T02:25:38.487Z,100836.16
2023-04-10T02:28:05.698Z,100825.16
2023-04-10T02:30:33.168Z,100824.38
2023-04-10T02:33:00.605Z,100829.03
2023-04-10T02:35:29.264Z,100829.88
2023-04-10T02:37:56.270Z,100829.84
2023-04-10T02:40:23.013Z,100832.84
2023-04-10T02:42:49.810Z,100832.34
2023-04-10T02:45:16.894Z,100825.75
2023-04-10T02:47:43.788Z,100834.31
2023-04-10T02:50:11.214Z,100837.06
2023-04-10T02:52:37.832Z,100831.00
2023-04-10T02:55:04.980Z,100825.53
2023-04-10T02:57:31.775Z,100822.25
2023-04-10T02:59:58.224Z,100821.41
2023-04-10T03:02:24.819Z,100826.59
2023-04-10T03:04:53.490Z,100821.63
2023-04-10T03:07:20.400Z,100829.03
2023-04-10T03:09:46.809Z,100829.59
2023-04-10T03:12:13.252Z,100829.84
2023-04-10T03:14:40.691Z,100828.44
2023-04-10T03:17:07.537Z,100835.03
2023-04-10T03:19:33.988Z,100837.19
2023-04-10T03:22:00.741Z,100833.84
2023-04-10T03:24:27.288Z,100834.09
2023-04-10T03:26:54.028Z,100830.78
2023-04-10T03:29:20.589Z,100837.31
2023-04-10T03:31:46.984Z,100829.31
2023-04-10T03:34:13.462Z,100829.75
2023-04-10T03:36:39.948Z,100834.63
2023-04-10T03:39:06.807Z,100838.47
2023-04-10T03:41:33.254Z,100830.75
2023-04-10T03:44:03.167Z,100831.28
2023-04-10T03:46:29.587Z,100835.97
2023-04-10T03:48:56.018Z,100839.28
2023-04-10T03:51:24.517Z,100840.19
2023-04-10T03:53:52.197Z,100836.91
2023-04-10T03:56:19.009Z,100844.59
2023-04-10T03:58:45.412Z,100835.22
2023-04-10T04:01:12.564Z,100839.91
2023-04-10T04:03:39.186Z,100839.94
2023-04-10T04:06:06.207Z,100839.72
2023-04-10T04:08:32.696Z,100845.59
2023-04-10T04:10:59.121Z,100850.81
2023-04-10T04:13:25.569Z,100848.91
2023-04-10T04:15:52.032Z,100844.81
2023-04-10T04:18:18.473Z,100853.94
2023-04-10T04:20:44.833Z,100853.13
2023-04-10T04:23:11.707Z,100862.78
2023-04-10T04:25:38.135Z,100854.81
2023-04-10T04:28:04.522Z,100867.72
2023-04-10T04:30:31.045Z,100856.72
2023-04-10T04:32:57.502Z,100861.69
2023-04-10T04:35:24.939Z,100864.44
2023-04-10T04:37:51.369Z,100866.88
2023-04-10T04:40:17.723Z,100871.84
2023-04-10T04:42:44.478Z,100872.91
2023-04-10T04:45:11.237Z,100864.59
2023-04-10T04:47:37.752Z,100873.41
2023-04-10T04:50:04.704Z,100873.34
2023-04-10T04:52:32.152Z,100865.59
2023-04-10T04:54:58.595Z,100864.50
2023-04-10T04:57:25.384Z,100865.03
2023-04-10T04:59:51.942Z,100854.84
2023-04-10T05:02:18.884Z,100865.28
2023-04-10T05:04:45.812Z,100864.38
2023-04-10T05:07:13.318Z,100868.75
2023-04-10T05:09:39.815Z,100869.22
2023-04-10T05:12:06.425Z,100865.84
2023-04-10T05:14:33.882Z,100866.31
2023-04-10T05:17:02.944Z,100859.88
2023-04-10T05:19:29.932Z,100873.66
2023-04-10T05:21:56.673Z,100866.69
2023-04-10T05:24:23.117Z,100877.03
2023-04-10T05:26:49.527Z,100869.72
2023-04-10T05:29:16.035Z,100871.25
2023-04-10T05:31:42.658Z,100877.50
2023-04-10T05:34:09.358Z,100877.00
2023-04-10T05:36:36.708Z,100877.81
2023-04-10T05:39:04.233Z,100882.78
2023-04-10T05:41:31.768Z,100881.75
2023-04-10T05:43:58.371Z,100884.78
2023-04-10T05:46:24.816Z,100880.00
2023-04-10T05:48:51.353Z,100879.75
2023-04-10T05:51:18.785Z,100874.78
2023-04-10T05:53:45.300Z,100878.59
2023-04-10T05:56:11.712Z,100873.97
2023-04-10T05:58:38.161Z,100883.00
2023-04-10T06:01:04.953Z,100877.88
2023-04-10T06:03:31.898Z,100876.34
2023-04-10T06:06:00.491Z,100864.66
2023-04-10T06:08:26.964Z,100872.66
2023-04-10T06:10:53.496Z,100869.56
2023-04-10T06:13:19.934Z,100870.19
2023-04-10T06:15:46.331Z,100864.28
2023-04-10T06:18:12.840Z,100877.13
2023-04-10T06:20:39.319Z,100866.25
2023-04-10T06:23:06.328Z,100868.56
2023-04-10T06:25:32.814Z,100873.34
2023-04-10T06:27:59.480Z,100870.47
2023-04-10T06:30:26.255Z,100871.97
2023-04-10T06:32:52.620Z,100866.00
2023-04-10T06:35:19.086Z,100858.50
2023-04-10T06:37:45.435Z,100865.56
2023-04-10T06:40:13.967Z,100858.16
2023-04-10T06:42:41.464Z,100853.41
2023-04-10T06:45:08.905Z,100860.06
2023-04-10T06:47:35.558Z,100865.53
2023-04-10T06:50:02.109Z,100863.66
2023-04-10T06:52:28.532Z,100859.34
2023-04-10T06:54:54.892Z,100858.88
2023-04-10T06:57:21.754Z,100859.13
2023-04-10T06:59:48.176Z,100862.94
2023-04-10T07:02:14.743Z,100860.47
2023-04-10T07:04:42.304Z,100861.25
2023-04-10T07:07:09.997Z,100848.75
2023-04-10T07:09:36.785Z,100852.47
2023-04-10T07:12:04.351Z,100846.50
2023-04-10T07:14:33.470Z,100851.88
2023-04-10T07:17:00.245Z,100845.56
2023-04-10T07:19:27.143Z,100852.81
2023-04-10T07:21:53.630Z,100853.97
2023-04-10T07:24:20.088Z,100842.22
2023-04-10T07:26:46.721Z,100844.00
2023-04-10T07:29:14.055Z,100849.59
2023-04-10T07:31:41.172Z,100840.97
2023-04-10T07:34:07.821Z,100836.59
2023-04-10T07:36:34.644Z,100836.63
2023-04-10T07:39:01.393Z,100841.94
2023-04-10T07:41:27.974Z,100839.19
2023-04-10T07:43:54.522Z,100831.19
2023-04-10T07:46:21.183Z,100831.28
2023-04-10T07:48:48.086Z,100832.63
2023-04-10T07:51:14.497Z,100826.66
2023-04-10T07:53:40.928Z,100823.38
2023-04-10T07:56:08.392Z,100827.72
2023-04-10T07:58:34.824Z,100823.28
2023-04-10T08:01:01.872Z,100822.84
2023-04-10T08:03:28.455Z,100827.56
2023-04-10T08:05:55.183Z,100825.50
2023-04-10T08:08:21.729Z,100832.56
2023-04-10T08:10:48.708Z,100822.66
2023-04-10T08:13:15.577Z,100819.19
2023-04-10T08:15:42.502Z,100814.75
2023-04-10T08:18:08.902Z,100811.13
2023-04-10T08:20:37.114Z,100812.75
2023-04-10T08:23:19.132Z,100819.81
2023-04-10T08:25:47.696Z,100802.25
2023-04-10T08:28:14.106Z,100806.56
2023-04-10T08:30:40.552Z,100803.09
2023-04-10T08:33:07.045Z,100799.72
2023-04-10T08:35:33.727Z,100809.91
2023-04-10T08:38:12.805Z,100802.84
2023-04-10T08:40:40.288Z,100796.59
2023-04-10T08:43:06.799Z,100789.94
2023-04-10T08:45:33.692Z,100791.97
2023-04-10T08:48:03.690Z,100797.72
2023-04-10T08:50:31.742Z,100789.09
2023-04-10T08:53:00.129Z,100788.81
2023-04-10T08:55:26.764Z,100783.22
2023-04-10T08:58:00.581Z,100781.88
2023-04-10T09:00:28.822Z,100784.94
2023-04-10T09:02:58.345Z,100784.09
2023-04-10T09:05:29.673Z,100781.88
2023-04-10T09:07:58.093Z,100774.31
2023-04-10T09:10:24.578Z,100762.91
2023-04-10T09:12:52.173Z,100756.75
2023-04-10T09:15:18.572Z,100774.84
2023-04-10T09:18:05.564Z,100762.06
2023-04-10T09:20:33.212Z,100775.72
2023-04-10T09:23:00.195Z,100764.94
2023-04-10T09:25:38.994Z,100768.91
2023-04-10T09:28:07.397Z,100776.94
2023-04-10T09:30:35.355Z,100759.44
2023-04-10T09:33:03.414Z,100763.88
2023-04-10T09:35:38.233Z,100763.59
2023-04-10T09:38:19.133Z,100751.34
2023-04-10T09:40:47.568Z,100748.16
2023-04-10T09:43:25.194Z,100747.19
2023-04-10T09:45:59.216Z,100737.25
2023-04-10T09:48:26.743Z,100725.53
2023-04-10T09:50:53.238Z,100734.41
2023-04-10T09:53:20.748Z,100728.31
2023-04-10T09:55:49.286Z,100730.91
2023-04-10T09:58:16.579Z,100725.16
2023-04-10T10:00:44.701Z,100718.09
2023-04-10T10:03:19.043Z,100723.72
2023-04-10T10:05:50.901Z,100717.91
2023-04-10T10:08:18.173Z,100710.81
2023-04-10T10:10:51.897Z,100709.66
2023-04-10T10:13:24.312Z,100700.63
2023-04-10T10:16:03.988Z,100689.97
2023-04-10T10:18:45.441Z,100697.63
2023-04-10T10:21:16.936Z,100690.00
2023-04-10T10:23:44.335Z,100674.00
2023-04-10T10:26:11.471Z,100670.81
2023-04-10T10:28:40.718Z,100684.19
2023-04-10T10:31:07.363Z,100668.06
2023-04-10T10:33:38.110Z,100667.84
2023-04-10T10:36:05.049Z,100664.09
2023-04-10T10:38:33.000Z,100649.91
2023-04-10T10:41:09.517Z,100653.72
2023-04-10T10:43:51.709Z,100650.84
2023-04-10T10:46:40.929Z,100640.16
2023-04-10T10:49:07.366Z,100640.31
2023-04-10T10:51:43.737Z,100634.03
2023-04-10T10:54:29.015Z,100639.56
2023-04-10T10:56:55.524Z,100632.09
2023-04-10T10:59:44.010Z,100621.31
2023-04-10T11:02:18.401Z,100634.03
2023-04-10T11:04:46.318Z,100635.63
2023-04-10T11:07:13.651Z,100625.47
2023-04-10T11:09:51.456Z,100609.72
2023-04-10T11:12:25.403Z,100598.06
2023-04-10T11:14:59.014Z,100603.22
2023-04-10T11:17:51.863Z,100583.47
2023-04-10T11:20:21.857Z,100582.00
2023-04-10T11:23:13.987Z,100595.09
2023-04-10T11:25:47.366Z,100572.16
2023-04-10T11:28:36.881Z,100576.09
2023-04-10T11:31:22.134Z,100569.69
2023-04-10T11:33:52.019Z,100564.66
2023-04-10T11:36:18.707Z,100566.28
2023-04-10T11:39:06.089Z,100555.16
2023-04-10T11:41:34.369Z,100545.88
2023-04-10T11:44:02.819Z,100540.44
2023-04-10T11:46:29.460Z,100544.22
2023-04-10T11:48:58.117Z,100533.31
2023-04-10T11:51:24.788Z,100541.38
2023-04-10T11:54:04.567Z,100525.19
2023-04-10T11:56:31.215Z,100522.75
2023-04-10T11:58:58.188Z,100530.38
2023-04-10T12:01:24.922Z,100530.91
2023-04-10T12:03:51.703Z,100526.03
2023-04-10T12:06:21.314Z,100520.00
2023-04-10T12:08:51.410Z,100511.53
2023-04-10T12:11:22.762Z,100506.16
2023-04-10T12:13:52.871Z,100512.88
2023-04-10T12:16:19.476Z,100505.88
2023-04-10T12:18:46.271Z,100502.63
2023-04-10T12:21:12.773Z,100502.59
2023-04-10T12:23:40.465Z,100492.91
2023-04-10T12:26:09.470Z,100506.03
2023-04-10T12:28:37.874Z,100507.31
2023-04-10T12:31:04.922Z,100496.06
2023-04-10T12:33:31.664Z,100500.06
2023-04-10T12:35:59.163Z,100490.66
2023-04-10T12:38:45.110Z,100485.53
2023-04-10T12:41:11.958Z,100492.13
2023-04-10T12:43:39.986Z,100477.53
2023-04-10T12:46:08.280Z,100472.31
2023-04-10T12:48:34.935Z,100481.84
2023-04-10T12:51:02.037Z,100472.56
2023-04-10T12:53:28.512Z,100485.09
2023-04-10T12:56:03.807Z,100462.19
2023-04-10T12:58:31.569Z,100459.47
2023-04-10T13:01:05.987Z,100461.19
2023-04-10T13:03:36.835Z,100460.72
2023-04-10T13:06:06.128Z,100453.97
2023-04-10T13:08:32.743Z,100455.31
2023-04-10T13:11:03.075Z,100453.72
2023-04-10T13:13:33.007Z,100439.16
2023-04-10T13:16:00.141Z,100441.66
2023-04-10T13:18:26.881Z,100443.63
2023-04-10T13:20:53.503Z,100450.22
2023-04-10T13:23:19.932Z,100438.16
2023-04-10T13:25:46.824Z,100434.75
2023-04-10T13:28:13.412Z,100426.25
2023-04-10T13:30:41.782Z,100414.06
2023-04-10T13:33:11.346Z,100422.41
2023-04-10T13:35:40.042Z,100414.75
2023-04-10T13:38:07.301Z,100402.19
2023-04-10T13:40:33.717Z,100404.06
2023-04-10T13:43:00.630Z,100393.56
2023-04-10T13:45:28.442Z,100395.63
2023-04-10T13:47:55.071Z,100387.28
2023-04-10T13:50:21.501Z,100386.97
2023-04-10T13:52:48.103Z,100383.47
2023-04-10T13:55:14.582Z,100380.66
2023-04-10T13:57:41.932Z,100370.63
2023-04-10T14:00:08.750Z,100371.41
2023-04-10T14:02:35.524Z,100369.34
2023-04-10T14:05:02.183Z,100359.34
2023-04-10T14:07:28.741Z,100354.97
2023-04-10T14:09:55.256Z,100354.63
2023-04-10T14:12:23.163Z,100351.34
2023-04-10T14:14:50.071Z,100355.41
2023-04-10T14:17:16.579Z,100348.91
2023-04-10T14:19:43.290Z,100331.44
2023-04-10T14:22:10.053Z,100345.09
2023-04-10T14:24:36.430Z,100339.03
2023-04-10T14:27:02.868Z,100357.38
2023-04-10T14:31:59.222Z,100334.50
2023-04-10T14:34:25.746Z,100322.94
2023-04-10T14:36:55.834Z,100322.28
2023-04-10T14:39:24.471Z,100333.31
2023-04-10T14:41:51.699Z,100318.63
2023-04-10T14:44:18.500Z,100315.34
2023-04-10T14:46:45.881Z,100315.28
2023-04-10T14:49:13.674Z,100303.25
2023-04-10T14:51:42.987Z,100307.75
2023-04-10T14:54:09.364Z,100304.22
2023-04-10T14:56:36.040Z,100294.56
2023-04-10T14:59:02.386Z,100294.63
2023-04-10T15:01:28.852Z,100294.56
2023-04-10T15:03:55.654Z,100304.81
2023-04-10T15:06:22.616Z,100305.13
2023-04-10T15:08:49.154Z,100289.28
2023-04-10T15:11:15.550Z,100288.50
2023-04-10T15:13:41.988Z,100277.91
2023-04-10T15:16:08.353Z,100279.91
2023-04-10T15:18:34.986Z,100277.16
2023-04-10T15:21:01.605Z,100272.84
2023-04-10T15:23:28.055Z,100251.81
2023-04-10T15:25:54.982Z,100257.88
2023-04-10T15:28:21.440Z,100256.00
2023-04-10T15:30:49.716Z,100240.38
2023-04-10T15:33:17.091Z,100240.00
2023-04-10T15:35:47.873Z,100241.09
2023-04-10T15:38:14.326Z,100228.47
2023-04-10T15:40:40.929Z,100228.84
2023-04-10T15:43:07.641Z,100232.16
2023-04-10T15:45:35.938Z,100222.41
2023-04-10T15:48:04.590Z,100220.59
2023-04-10T15:50:31.344Z,100230.34
2023-04-10T15:52:58.131Z,100226.63
2023-04-10T15:55:24.641Z,100223.72
2023-04-10T15:57:51.094Z,100210.88
2023-04-10T16:00:17.925Z,100211.59
2023-04-10T16:02:44.798Z,100216.47
2023-04-10T16:05:11.681Z,100210.09
2023-04-10T16:07:39.171Z,100203.63
2023-04-10T16:10:06.656Z,100201.19
2023-04-10T16:12:33.089Z,100192.72
2023-04-10T16:14:59.529Z,100201.44
2023-04-10T16:17:26.030Z,100204.44
2023-04-10T16:19:52.699Z,100181.56
2023-04-10T16:22:19.172Z,100178.03
2023-04-10T16:24:46.785Z,100181.69
2023-04-10T16:27:13.319Z,100206.00
2023-04-10T16:29:41.577Z,100180.19
2023-04-10T16:32:08.078Z,100177.25
2023-04-10T16:34:34.563Z,100177.66
2023-04-10T16:37:01.033Z,100170.00
2023-04-10T16:39:27.403Z,100170.84
2023-04-10T16:41:54.016Z,100158.03
2023-04-10T16:44:20.508Z,100162.03
2023-04-10T16:46:46.943Z,100155.56
2023-04-10T16:49:13.722Z,100156.38
2023-04-10T16:51:40.197Z,100153.25
2023-04-10T16:54:07.130Z,100159.53
2023-04-10T16:56:33.847Z,100147.75
2023-04-10T16:59:00.292Z,100144.94
2023-04-10T17:01:28.341Z,100145.81
2023-04-10T17:03:55.289Z,100132.44
2023-04-10T17:06:22.180Z,100133.19
2023-04-10T17:08:48.684Z,100128.72
2023-04-10T17:11:16.014Z,100126.28
2023-04-10T17:13:42.502Z,100133.44
2023-04-10T17:16:09.990Z,100129.69
2023-04-10T17:18:36.584Z,100121.53
2023-04-10T17:21:03.211Z,100127.44
2023-04-10T17:23:29.884Z,100122.16
2023-04-10T17:25:56.372Z,100119.59
2023-04-10T17:28:23.005Z,100116.78
2023-04-10T17:30:49.417Z,100119.19
2023-04-10T17:33:15.826Z,100124.69
2023-04-10T17:35:42.340Z,100118.28
2023-04-10T17:38:08.926Z,100115.78
2023-04-10T17:40:37.030Z,100120.06
2023-04-10T17:43:03.470Z,100118.31
2023-04-10T17:45:29.901Z,100112.13
2023-04-10T17:47:56.923Z,100114.91
2023-04-10T17:50:24.041Z,100107.94
2023-04-10T17:52:50.407Z,100115.16
2023-04-10T17:55:20.502Z,100101.47
2023-04-10T17:57:47.858Z,100110.69
2023-04-10T18:00:15.667Z,100095.16
2023-04-10T18:02:43.132Z,100095.50
2023-04-10T18:05:09.759Z,100090.13
2023-04-10T18:07:37.340Z,100088.09
2023-04-10T18:10:09.789Z,100086.41
2023-04-10T18:12:37.532Z,100086.59
2023-04-10T18:15:04.476Z,100080.69
2023-04-10T18:17:31.030Z,100084.69
2023-04-10T18:19:57.649Z,100080.06
2023-04-10T18:22:24.213Z,100086.03
2023-04-10T18:24:50.658Z,100075.44
2023-04-10T18:27:17.072Z,100077.13
2023-04-10T18:29:45.782Z,100073.06
2023-04-10T18:32:12.441Z,100076.91
2023-04-10T18:34:39.577Z,100063.81
2023-04-10T18:37:08.909Z,100059.69
2023-04-10T18:39:38.176Z,100067.88
2023-04-10T18:42:10.833Z,100063.91
2023-04-10T18:44:37.892Z,100061.59
2023-04-10T18:47:05.329Z,100058.63
2023-04-10T18:49:32.439Z,100060.91
2023-04-10T18:51:59.283Z,100045.16
2023-04-10T18:54:28.657Z,100052.28
2023-04-10T18:56:56.876Z,100044.38
2023-04-10T18:59:24.067Z,100042.59
2023-04-10T19:01:51.221Z,100042.53
2023-04-10T19:04:17.900Z,100038.03
2023-04-10T19:06:46.218Z,100045.81
2023-04-10T19:09:13.439Z,100040.59
2023-04-10T19:11:40.091Z,100035.75
2023-04-10T19:14:06.917Z,100035.22
2023-04-10T19:19:05.159Z,100033.31
2023-04-10T19:21:31.745Z,100019.72
2023-04-10T19:23:58.943Z,100018.47
2023-04-10T19:26:25.864Z,100018.84
2023-04-10T19:28:52.403Z,100016.31
2023-04-10T19:31:19.708Z,100014.09
2023-04-10T19:33:46.220Z,100000.13
2023-04-10T19:36:15.492Z,99999.78
2023-04-10T19:38:44.447Z,99992.94
2023-04-10T19:41:15.096Z,99992.03
2023-04-10T19:43:41.742Z,99979.53
2023-04-10T19:46:18.605Z,99982.97
2023-04-10T19:48:45.608Z,99986.56
2023-04-10T19:51:12.060Z,99981.34
2023-04-10T19:53:38.656Z,99982.16
2023-04-10T19:56:05.937Z,99980.44
2023-04-10T19:58:40.442Z,99988.56
2023-04-10T20:01:11.942Z,99978.47
2023-04-10T20:03:39.191Z,99972.97
2023-04-10T20:06:10.034Z,99981.59
2023-04-10T20:08:36.633Z,99972.22
2023-04-10T20:11:06.188Z,99973.94
2023-04-10T20:13:34.313Z,99965.47
2023-04-10T20:16:01.028Z,99966.84
2023-04-10T20:18:27.513Z,99978.34
2023-04-10T20:20:53.974Z,99954.41
2023-04-10T20:23:20.538Z,99953.50
2023-04-10T20:25:47.578Z,99947.38
2023-04-10T20:28:15.497Z,99945.06
2023-04-10T20:30:43.819Z,99940.56
2023-04-10T20:33:11.544Z,99943.00
2023-04-10T20:35:42.304Z,99912.94
2023-04-10T20:38:11.925Z,99915.28
2023-04-10T20:40:38.392Z,99903.59
2023-04-10T20:43:10.905Z,99903.59
2023-04-10T20:45:38.678Z,99904.56
2023-04-10T20:48:05.740Z,99902.31
2023-04-10T20:50:32.412Z,99908.88
2023-04-10T20:52:58.836Z,99899.97
2023-04-10T20:55:26.235Z,99891.63
2023-04-10T20:57:53.373Z,99888.66
2023-04-10T21:00:20.225Z,99893.69
2023-04-10T21:02:47.101Z,99893.22
2023-04-10T21:05:14.918Z,99890.91
2023-04-10T21:07:43.165Z,99892.59
2023-04-10T21:10:10.928Z,99887.28
2023-04-10T21:12:37.698Z,99886.47
2023-04-10T21:15:04.410Z,99883.44
2023-04-10T21:17:33.075Z,99879.66
2023-04-10T21:20:00.253Z,99889.38
2023-04-10T21:22:29.130Z,99887.28
2023-04-10T21:24:55.946Z,99882.88
2023-04-10T21:27:22.374Z,99876.06
2023-04-10T21:29:48.850Z,99873.81
2023-04-10T21:32:16.358Z,99881.72
2023-04-10T21:34:42.929Z,99874.16
2023-04-10T21:37:09.393Z,99866.88
2023-04-10T21:39:35.808Z,99868.03
2023-04-10T21:42:02.246Z,99854.44
2023-04-10T21:44:28.659Z,99854.53
2023-04-10T21:46:55.090Z,99848.50
2023-04-10T21:49:21.418Z,99835.03
2023-04-10T21:51:47.874Z,99837.19
2023-04-10T21:54:14.264Z,99833.41
2023-04-10T21:56:41.369Z,99835.13
2023-04-10T21:59:08.215Z,99830.44
2023-04-10T22:01:34.809Z,99833.22
2023-04-10T22:04:01.391Z,99837.53
2023-04-10T22:06:27.974Z,99834.34
2023-04-10T22:08:55.031Z,99834.50
2023-04-10T22:11:21.645Z,99839.25
2023-04-10T22:14:25.996Z,99828.09
2023-04-10T22:16:57.816Z,99822.00
2023-04-10T22:19:25.666Z,99823.69
2023-04-10T22:21:52.311Z,99817.84
2023-04-10T22:24:18.820Z,99823.63
2023-04-10T22:26:46.180Z,99807.16
2023-04-10T22:29:14.555Z,99803.47
2023-04-10T22:31:41.870Z,99804.56
2023-04-10T22:34:09.330Z,99803.31
2023-04-10T22:36:36.626Z,99802.41
2023-04-10T22:39:03.596Z,99789.09
2023-04-10T22:41:30.575Z,99794.94
2023-04-10T22:43:57.028Z,99783.25
2023-04-10T22:46:23.716Z,99768.06
2023-04-10T22:48:50.165Z,99768.44
2023-04-10T22:51:17.294Z,99781.72
2023-04-10T22:53:43.700Z,99771.03
2023-04-10T22:56:10.556Z,99759.88
2023-04-10T22:58:40.469Z,99756.38
2023-04-10T23:01:08.230Z,99747.75
2023-04-10T23:03:35.492Z,99737.69
2023-04-10T23:06:02.263Z,99732.03
2023-04-10T23:08:28.828Z,99729.69
2023-04-10T23:10:55.697Z,99725.66
2023-04-10T23:13:22.539Z,99727.56
2023-04-10T23:15:50.144Z,99719.06
2023-04-10T23:18:17.095Z,99728.25
2023-04-10T23:20:43.607Z,99719.34
2023-04-10T23:23:10.155Z,99725.47
2023-04-10T23:25:36.813Z,99713.06
2023-04-10T23:28:04.045Z,99709.75
2023-04-10T23:30:31.101Z,99705.06
2023-04-10T23:32:57.819Z,99695.59
2023-04-10T23:35:27.138Z,99696.78
2023-04-10T23:37:53.658Z,99686.16
2023-04-10T23:40:21.683Z,99685.72
2023-04-10T23:42:48.699Z,99670.81
2023-04-10T23:45:15.549Z,99661.94
2023-04-10T23:47:42.088Z,99667.38
2023-04-10T23:50:09.004Z,99659.84
2023-04-10T23:52:35.397Z,99656.19
2023-04-10T23:55:01.758Z,99643.38
2023-04-10T23:57:28.199Z,99635.28
2023-04-10T23:59:54.601Z,99637.63
